Aviation Digital Data Service (ADDS)

Output produced by METARs form (1749 UTC 28 March 2017)
found at http://aviationweather.gov/adds/metars/
 
KLFT 281653Z VRB06KT 10SM SCT031 27/19 A2998 RMK AO2 SLP153 T02720189